createdAt,value
2019-01-09T00:00:06.000Z,27
2019-01-09T00:01:06.000Z,27
2019-01-09T00:03:06.000Z,27
2019-01-09T00:05:06.000Z,27
2019-01-09T00:07:06.000Z,26.9
2019-01-09T00:08:06.000Z,26.9
2019-01-09T00:10:06.000Z,26.9
2019-01-09T00:11:51.000Z,26.9
2019-01-09T00:13:06.000Z,26.9
2019-01-09T00:14:06.000Z,26.9
2019-01-09T00:16:06.000Z,26.9
2019-01-09T00:17:06.000Z,27
2019-01-09T00:19:06.000Z,26.9
2019-01-09T00:21:06.000Z,26.9
2019-01-09T00:22:06.000Z,26.9
2019-01-09T00:23:51.000Z,26.9
2019-01-09T00:25:06.000Z,26.9
2019-01-09T00:26:51.000Z,26.9
2019-01-09T00:28:06.000Z,26.7
2019-01-09T00:29:06.000Z,26.7
2019-01-09T00:30:06.000Z,26.7
2019-01-09T00:32:06.000Z,26.8
2019-01-09T00:33:06.000Z,26.8
2019-01-09T00:34:06.000Z,26.8
2019-01-09T00:35:06.000Z,26.9
2019-01-09T00:36:06.000Z,26.9
2019-01-09T00:38:06.000Z,26.9
2019-01-09T00:39:06.000Z,26.9
2019-01-09T00:41:06.000Z,26.9
2019-01-09T00:42:06.000Z,26.9
2019-01-09T00:43:06.000Z,26.9
2019-01-09T00:45:06.000Z,26.9
2019-01-09T00:46:06.000Z,26.9
2019-01-09T00:47:51.000Z,27
2019-01-09T00:49:06.000Z,26.9
2019-01-09T00:51:06.000Z,26.9
2019-01-09T00:52:06.000Z,26.9
2019-01-09T00:54:06.000Z,26.9
2019-01-09T00:55:06.000Z,26.9
2019-01-09T00:57:06.000Z,27
2019-01-09T00:58:06.000Z,27
2019-01-09T01:00:06.000Z,27
2019-01-09T01:02:06.000Z,26.9
2019-01-09T01:03:51.000Z,26.9
2019-01-09T01:05:06.000Z,26.8
2019-01-09T01:06:06.000Z,26.8
2019-01-09T01:08:06.000Z,26.9
2019-01-09T01:09:06.000Z,26.9
2019-01-09T01:10:51.000Z,26.9
2019-01-09T01:12:06.000Z,26.9
2019-01-09T01:13:06.000Z,26.9
2019-01-09T01:15:06.000Z,26.9
2019-01-09T01:17:06.000Z,26.9
2019-01-09T01:18:06.000Z,26.8
2019-01-09T01:19:06.000Z,26.9
2019-01-09T01:21:06.000Z,26.9
2019-01-09T01:22:06.000Z,26.9
2019-01-09T01:24:06.000Z,26.9
2019-01-09T01:25:06.000Z,26.9
2019-01-09T01:26:06.000Z,26.9
2019-01-09T01:28:06.000Z,27
2019-01-09T01:30:06.000Z,26.9
2019-01-09T01:32:06.000Z,26.8
2019-01-09T01:34:06.000Z,26.8
2019-01-09T01:35:06.000Z,26.8
2019-01-09T01:37:06.000Z,26.8
2019-01-09T01:38:06.000Z,26.7
2019-01-09T01:40:06.000Z,26.8
2019-01-09T01:41:06.000Z,26.8
2019-01-09T01:42:06.000Z,26.9
2019-01-09T01:44:06.000Z,26.8
2019-01-09T01:46:06.000Z,26.7
2019-01-09T01:47:06.000Z,26.7
2019-01-09T01:48:07.000Z,26.8
2019-01-09T01:50:07.000Z,26.8
2019-01-09T01:52:07.000Z,26.8
2019-01-09T01:53:51.000Z,26.7
2019-01-09T01:55:07.000Z,26.7
2019-01-09T01:57:07.000Z,26.6
2019-01-09T01:58:07.000Z,26.6
2019-01-09T02:00:07.000Z,26.7
2019-01-09T02:02:07.000Z,26.6
2019-01-09T02:03:07.000Z,26.6
2019-01-09T02:05:07.000Z,26.7
2019-01-09T02:07:07.000Z,26.7
2019-01-09T02:08:07.000Z,26.7
2019-01-09T02:10:07.000Z,26.8
2019-01-09T02:11:07.000Z,26.8
2019-01-09T02:13:07.000Z,26.8
2019-01-09T02:14:07.000Z,26.9
2019-01-09T02:15:07.000Z,26.9
2019-01-09T02:17:07.000Z,27
2019-01-09T02:18:07.000Z,27
2019-01-09T02:19:07.000Z,27
2019-01-09T02:21:07.000Z,27
2019-01-09T02:22:07.000Z,27
2019-01-09T02:24:07.000Z,26.9
2019-01-09T02:25:07.000Z,26.9
2019-01-09T02:27:07.000Z,26.8
2019-01-09T02:28:07.000Z,26.8
2019-01-09T02:30:07.000Z,26.9
2019-01-09T02:31:07.000Z,26.9
2019-01-09T02:32:52.000Z,26.9
2019-01-09T02:34:07.000Z,26.7
2019-01-09T02:35:07.000Z,26.7
2019-01-09T02:36:07.000Z,26.7
2019-01-09T02:38:07.000Z,26.7
2019-01-09T02:39:07.000Z,26.7
2019-01-09T02:40:07.000Z,26.8
2019-01-09T02:41:07.000Z,26.8
2019-01-09T02:43:07.000Z,26.8
2019-01-09T02:45:07.000Z,26.7
2019-01-09T02:47:07.000Z,26.7
2019-01-09T02:49:07.000Z,26.7
2019-01-09T02:50:07.000Z,26.7
2019-01-09T02:51:52.000Z,26.8
2019-01-09T02:53:07.000Z,26.7
2019-01-09T02:55:07.000Z,26.7
2019-01-09T02:57:07.000Z,26.7
2019-01-09T02:59:07.000Z,26.6
2019-01-09T03:00:07.000Z,26.6
2019-01-09T03:02:07.000Z,26.6
2019-01-09T03:04:07.000Z,26.6
2019-01-09T03:05:52.000Z,26.6
2019-01-09T03:07:07.000Z,26.5
2019-01-09T03:09:07.000Z,26.5
2019-01-09T03:10:07.000Z,26.5
2019-01-09T03:11:07.000Z,26.5
2019-01-09T03:13:07.000Z,26.6
2019-01-09T03:14:07.000Z,26.6
2019-01-09T03:15:52.000Z,26.6
2019-01-09T03:17:07.000Z,26.6
2019-01-09T03:19:07.000Z,26.6
2019-01-09T03:21:07.000Z,26.6
2019-01-09T03:22:07.000Z,26.6
2019-01-09T03:24:07.000Z,26.7
2019-01-09T03:25:52.000Z,26.7
2019-01-09T03:27:07.000Z,26.7
2019-01-09T03:28:07.000Z,26.7
2019-01-09T03:29:07.000Z,26.8
2019-01-09T03:31:07.000Z,26.8
2019-01-09T03:32:07.000Z,26.8
2019-01-09T03:34:07.000Z,26.8
2019-01-09T03:35:07.000Z,26.8
2019-01-09T03:37:07.000Z,26.8
2019-01-09T03:38:07.000Z,26.8
2019-01-09T03:40:07.000Z,26.9
2019-01-09T03:41:07.000Z,26.9
2019-01-09T03:42:07.000Z,26.9
2019-01-09T03:44:07.000Z,26.9
2019-01-09T03:46:07.000Z,26.8
2019-01-09T03:48:07.000Z,26.7
2019-01-09T03:50:07.000Z,26.7
2019-01-09T03:52:07.000Z,26.6
2019-01-09T03:53:07.000Z,26.6
2019-01-09T03:54:07.000Z,26.7
2019-01-09T03:56:07.000Z,26.8
2019-01-09T03:57:51.000Z,26.8
2019-01-09T03:59:07.000Z,26.7
2019-01-09T04:00:07.000Z,26.8
2019-01-09T04:02:07.000Z,26.8
2019-01-09T04:04:07.000Z,26.7
2019-01-09T04:05:07.000Z,26.7
2019-01-09T04:06:07.000Z,26.7
2019-01-09T04:07:51.000Z,26.8
2019-01-09T04:09:07.000Z,26.7
2019-01-09T04:11:07.000Z,26.7
2019-01-09T04:12:07.000Z,26.7
2019-01-09T04:13:07.000Z,26.8
2019-01-09T04:15:07.000Z,26.8
2019-01-09T04:17:07.000Z,26.8
2019-01-09T04:19:07.000Z,26.7
2019-01-09T04:21:07.000Z,26.6
2019-01-09T04:22:07.000Z,26.6
2019-01-09T04:24:07.000Z,26.6
2019-01-09T04:26:07.000Z,26.6
2019-01-09T04:28:07.000Z,26.5
2019-01-09T04:29:07.000Z,26.5
2019-01-09T04:31:07.000Z,26.6
2019-01-09T04:32:07.000Z,26.6
2019-01-09T04:34:07.000Z,26.6
2019-01-09T04:36:07.000Z,26.5
2019-01-09T04:37:07.000Z,26.5
2019-01-09T04:38:07.000Z,26.5
2019-01-09T04:39:07.000Z,26.5
2019-01-09T04:41:07.000Z,26.6
2019-01-09T04:42:07.000Z,26.7
2019-01-09T04:44:07.000Z,26.7
2019-01-09T04:45:07.000Z,26.7
2019-01-09T04:46:07.000Z,26.8
2019-01-09T04:48:07.000Z,26.7
2019-01-09T04:50:07.000Z,26.7
2019-01-09T04:51:07.000Z,26.7
2019-01-09T04:52:07.000Z,26.7
2019-01-09T04:54:07.000Z,26.8
2019-01-09T04:56:07.000Z,26.7
2019-01-09T04:58:07.000Z,26.6
2019-01-09T05:00:07.000Z,26.5
2019-01-09T05:02:07.000Z,26.4
2019-01-09T05:03:07.000Z,26.3
2019-01-09T05:05:07.000Z,26.4
2019-01-09T05:06:52.000Z,26.4
2019-01-09T05:08:07.000Z,26.3
2019-01-09T05:09:07.000Z,26.3
2019-01-09T05:11:07.000Z,26.2
2019-01-09T05:12:07.000Z,26.2
2019-01-09T05:13:07.000Z,26.3
2019-01-09T05:14:52.000Z,26.4
2019-01-09T05:16:07.000Z,26.5
2019-01-09T05:18:07.000Z,26.5
2019-01-09T05:20:07.000Z,26.5
2019-01-09T05:21:07.000Z,26.5
2019-01-09T05:23:07.000Z,26.6
2019-01-09T05:25:07.000Z,26.5
2019-01-09T05:27:07.000Z,26.5
2019-01-09T05:28:07.000Z,26.5
2019-01-09T05:30:07.000Z,26.5
2019-01-09T05:31:52.000Z,26.4
2019-01-09T05:33:07.000Z,26.4
2019-01-09T05:35:07.000Z,26.4
2019-01-09T05:37:07.000Z,26.4
2019-01-09T05:39:07.000Z,26.2
2019-01-09T05:40:07.000Z,26.1
2019-01-09T05:41:07.000Z,26.2
2019-01-09T05:43:07.000Z,26.4
2019-01-09T05:44:07.000Z,26.4
2019-01-09T05:46:07.000Z,26.5
2019-01-09T05:47:07.000Z,26.6
2019-01-09T05:49:07.000Z,26.7
2019-01-09T05:51:07.000Z,26.7
2019-01-09T05:53:07.000Z,26.7
2019-01-09T05:54:07.000Z,26.7
2019-01-09T05:56:07.000Z,26.7
2019-01-09T05:57:52.000Z,26.7
2019-01-09T05:59:07.000Z,26.7
2019-01-09T06:00:07.000Z,26.7
2019-01-09T06:02:07.000Z,26.8
2019-01-09T06:04:07.000Z,26.8
2019-01-09T06:05:07.000Z,26.9
2019-01-09T06:07:07.000Z,27
2019-01-09T06:09:07.000Z,27
2019-01-09T06:10:07.000Z,27
2019-01-09T06:11:07.000Z,27.1
2019-01-09T06:12:07.000Z,27.1
2019-01-09T06:14:07.000Z,27.2
2019-01-09T06:16:07.000Z,27.2
2019-01-09T06:17:07.000Z,27.2
2019-01-09T06:19:07.000Z,27.2
2019-01-09T06:20:07.000Z,27.3
2019-01-09T06:22:07.000Z,27.3
2019-01-09T06:23:07.000Z,27.4
2019-01-09T06:25:07.000Z,27.4
2019-01-09T06:27:07.000Z,27.4
2019-01-09T06:29:07.000Z,27.3
2019-01-09T06:30:07.000Z,27.3
2019-01-09T06:32:07.000Z,27.1
2019-01-09T06:34:07.000Z,27.1
2019-01-09T06:36:07.000Z,27.1
2019-01-09T06:37:07.000Z,27.1
2019-01-09T06:39:07.000Z,27.2
2019-01-09T06:41:07.000Z,27.2
2019-01-09T06:42:07.000Z,27.2
2019-01-09T06:44:07.000Z,27.3
2019-01-09T06:45:07.000Z,27.3
2019-01-09T06:47:07.000Z,27.3
2019-01-09T06:49:07.000Z,27.2
2019-01-09T06:50:07.000Z,27.2
2019-01-09T06:51:07.000Z,27.3
2019-01-09T06:52:52.000Z,27.4
2019-01-09T06:54:07.000Z,27.3
2019-01-09T06:55:07.000Z,27.4
2019-01-09T06:57:07.000Z,27.4
2019-01-09T06:58:07.000Z,27.4
2019-01-09T07:00:07.000Z,27.5
2019-01-09T07:01:07.000Z,27.5
2019-01-09T07:02:07.000Z,27.6
2019-01-09T07:03:07.000Z,27.7
2019-01-09T07:05:07.000Z,27.8
2019-01-09T07:07:07.000Z,27.8
2019-01-09T07:08:07.000Z,27.8
2019-01-09T07:09:07.000Z,27.8
2019-01-09T07:11:07.000Z,27.8
2019-01-09T07:13:07.000Z,27.7
2019-01-09T07:14:07.000Z,27.7
2019-01-09T07:16:07.000Z,27.8
2019-01-09T07:18:07.000Z,27.8
2019-01-09T07:19:07.000Z,27.8
2019-01-09T07:21:07.000Z,27.9
2019-01-09T07:23:07.000Z,27.9
2019-01-09T07:24:07.000Z,27.9
2019-01-09T07:25:07.000Z,27.9
2019-01-09T07:27:07.000Z,28
2019-01-09T07:28:07.000Z,28
2019-01-09T07:29:51.000Z,28.1
2019-01-09T07:31:07.000Z,28.1
2019-01-09T07:33:07.000Z,28
2019-01-09T07:34:07.000Z,28
2019-01-09T07:35:51.000Z,28
2019-01-09T07:37:07.000Z,28
2019-01-09T07:38:07.000Z,28.1
2019-01-09T07:40:07.000Z,28.1
2019-01-09T07:41:07.000Z,28.1
2019-01-09T07:43:07.000Z,28.2
2019-01-09T07:45:07.000Z,28.1
2019-01-09T07:46:07.000Z,28.1
2019-01-09T07:47:07.000Z,28.2
2019-01-09T07:48:07.000Z,28.2
2019-01-09T07:50:07.000Z,28.2
2019-01-09T07:51:07.000Z,28.3
2019-01-09T07:52:07.000Z,28.3
2019-01-09T07:54:07.000Z,28.4
2019-01-09T07:55:07.000Z,28.4
2019-01-09T07:57:07.000Z,28.4
2019-01-09T07:59:07.000Z,28.3
2019-01-09T08:01:07.000Z,28.3
2019-01-09T08:02:07.000Z,28.3
2019-01-09T08:04:07.000Z,28.3
2019-01-09T08:06:07.000Z,28.1
2019-01-09T08:07:07.000Z,28.1
2019-01-09T08:09:07.000Z,28.1
2019-01-09T08:10:06.000Z,28.1
2019-01-09T08:11:06.000Z,28.2
2019-01-09T08:13:06.000Z,28.2
2019-01-09T08:14:06.000Z,28.2
2019-01-09T08:15:06.000Z,28.3
2019-01-09T08:17:06.000Z,28.4
2019-01-09T08:19:06.000Z,28.4
2019-01-09T08:21:06.000Z,28.5
2019-01-09T08:22:06.000Z,28.5
2019-01-09T08:24:06.000Z,28.6
2019-01-09T08:26:06.000Z,28.6
2019-01-09T08:27:06.000Z,28.6
2019-01-09T08:29:06.000Z,28.7
2019-01-09T08:30:06.000Z,28.7
2019-01-09T08:32:06.000Z,28.8
2019-01-09T08:33:06.000Z,28.8
2019-01-09T08:35:06.000Z,28.9
2019-01-09T08:36:06.000Z,28.9
2019-01-09T08:38:06.000Z,29.1
2019-01-09T08:40:06.000Z,29
2019-01-09T08:42:06.000Z,28.7
2019-01-09T08:44:06.000Z,28.3
2019-01-09T08:46:06.000Z,27.8
2019-01-09T08:48:06.000Z,27.4
2019-01-09T08:50:06.000Z,26.9
2019-01-09T08:52:06.000Z,26.7
2019-01-09T08:53:06.000Z,26.8
2019-01-09T08:54:06.000Z,27
2019-01-09T08:56:06.000Z,27.2
2019-01-09T08:57:06.000Z,27.3
2019-01-09T08:59:06.000Z,27.5
2019-01-09T09:00:06.000Z,27.6
2019-01-09T09:02:06.000Z,27.8
2019-01-09T09:04:06.000Z,27.9
2019-01-09T09:05:06.000Z,27.9
2019-01-09T09:07:06.000Z,28
2019-01-09T09:08:06.000Z,28.1
2019-01-09T09:10:06.000Z,28.1
2019-01-09T09:12:06.000Z,28.2
2019-01-09T09:13:06.000Z,28.3
2019-01-09T09:14:06.000Z,28.4
2019-01-09T09:16:06.000Z,28.5
2019-01-09T09:18:06.000Z,28.5
2019-01-09T09:20:06.000Z,28.6
2019-01-09T09:21:06.000Z,28.6
2019-01-09T09:22:06.000Z,28.7
2019-01-09T09:24:06.000Z,28.8
2019-01-09T09:25:06.000Z,28.8
2019-01-09T09:26:06.000Z,28.9
2019-01-09T09:28:06.000Z,29
2019-01-09T09:29:06.000Z,29
2019-01-09T09:31:06.000Z,29
2019-01-09T09:32:06.000Z,29
2019-01-09T09:34:06.000Z,29.1
2019-01-09T09:36:06.000Z,29.1
2019-01-09T09:38:06.000Z,29
2019-01-09T09:39:06.000Z,29
2019-01-09T09:40:06.000Z,29.1
2019-01-09T09:41:06.000Z,29.2
2019-01-09T09:43:06.000Z,29.2
2019-01-09T09:45:06.000Z,29.2
2019-01-09T09:46:06.000Z,29.2
2019-01-09T09:48:06.000Z,29.2
2019-01-09T09:49:06.000Z,29.3
2019-01-09T09:51:06.000Z,29.4
2019-01-09T09:53:06.000Z,29.4
2019-01-09T09:55:06.000Z,29.3
2019-01-09T09:57:06.000Z,29.1
2019-01-09T09:58:06.000Z,29.1
2019-01-09T10:00:06.000Z,29.2
2019-01-09T10:01:06.000Z,29.3
2019-01-09T10:03:06.000Z,29.4
2019-01-09T10:04:06.000Z,29.4
2019-01-09T10:05:06.000Z,29.4
2019-01-09T10:07:06.000Z,29.5
2019-01-09T10:09:06.000Z,29.5
2019-01-09T10:11:06.000Z,29.5
2019-01-09T10:12:06.000Z,29.5
2019-01-09T10:13:06.000Z,29.5
2019-01-09T10:14:06.000Z,29.6
2019-01-09T10:15:06.000Z,29.8
2019-01-09T10:17:06.000Z,30
2019-01-09T10:19:07.000Z,30
2019-01-09T10:20:52.000Z,30
2019-01-09T11:04:19.000Z,25.3
2019-01-09T11:05:19.000Z,25.3
2019-01-09T11:07:19.000Z,25.2
2019-01-09T11:09:19.000Z,25.2
2019-01-09T11:11:19.000Z,25.1
2019-01-09T11:12:19.000Z,25.1
2019-01-09T11:13:19.000Z,25.2
2019-01-09T11:14:19.000Z,25.3
2019-01-09T11:16:19.000Z,25.6
2019-01-09T11:18:19.000Z,25.6
2019-01-09T11:20:19.000Z,25.3
2019-01-09T11:21:19.000Z,25.1
2019-01-09T11:23:19.000Z,24.8
2019-01-09T11:25:19.000Z,24.8
2019-01-09T11:26:19.000Z,24.9
2019-01-09T11:28:19.000Z,24.9
2019-01-09T11:30:19.000Z,25
2019-01-09T11:32:19.000Z,25.2
2019-01-09T11:34:19.000Z,25.2
2019-01-09T11:35:19.000Z,25.1
2019-01-09T11:37:19.000Z,24.9
2019-01-09T11:38:19.000Z,25
2019-01-09T11:39:19.000Z,25
2019-01-09T11:41:19.000Z,25.2
2019-01-09T11:43:19.000Z,25.1
2019-01-09T11:45:19.000Z,25
2019-01-09T11:46:19.000Z,24.9
2019-01-09T11:48:19.000Z,25.2
2019-01-09T11:50:19.000Z,25.4
2019-01-09T11:51:19.000Z,25.4
2019-01-09T11:53:19.000Z,25.3
2019-01-09T11:55:19.000Z,25.3
2019-01-09T11:56:19.000Z,25.4
2019-01-09T11:58:19.000Z,25.5
2019-01-09T12:00:19.000Z,25.9
2019-01-09T12:02:19.000Z,26.2
2019-01-09T12:04:19.000Z,26.2
2019-01-09T12:05:19.000Z,26.2
2019-01-09T12:07:19.000Z,26.4
2019-01-09T12:09:19.000Z,26.5
2019-01-09T12:11:04.000Z,26.6
2019-01-09T12:12:19.000Z,26.6
2019-01-09T12:13:19.000Z,26.6
2019-01-09T12:15:19.000Z,26.9
2019-01-09T12:17:19.000Z,27
2019-01-09T12:18:19.000Z,27
2019-01-09T12:19:19.000Z,27.2
2019-01-09T12:21:19.000Z,27.3
2019-01-09T12:22:19.000Z,27.4
2019-01-09T12:23:19.000Z,27.5
2019-01-09T12:25:19.000Z,27.7
2019-01-09T12:26:19.000Z,27.7
2019-01-09T12:28:19.000Z,27.9
2019-01-09T12:41:31.000Z,27.2
2019-01-09T12:43:16.000Z,27.5
2019-01-09T12:44:16.000Z,27.6
2019-01-09T12:46:16.000Z,28
2019-01-09T12:47:16.000Z,28.1
2019-01-09T12:48:16.000Z,28.4
2019-01-09T12:50:16.000Z,28.6
2019-01-09T12:51:16.000Z,28.7
2019-01-09T12:52:16.000Z,28.9
2019-01-09T12:54:16.000Z,29.2
2019-01-09T12:55:16.000Z,29.2
2019-01-09T12:57:01.000Z,29.2
2019-01-09T12:58:16.000Z,29.1
2019-01-09T12:59:16.000Z,29.1
2019-01-09T13:01:17.000Z,29.3
2019-01-09T13:03:16.000Z,29.7
2019-01-09T13:05:01.000Z,30
2019-01-09T13:06:16.000Z,30.1
2019-01-09T13:08:16.000Z,30.4
2019-01-09T13:10:16.000Z,30.8
2019-01-09T13:11:16.000Z,31
2019-01-09T13:13:16.000Z,31.2
2019-01-09T13:15:16.000Z,31.2
2019-01-09T13:16:16.000Z,31
2019-01-09T13:18:16.000Z,30.7
2019-01-09T13:19:16.000Z,30.6
2019-01-09T13:20:16.000Z,30.5
2019-01-09T13:21:16.000Z,30.5
2019-01-09T13:23:16.000Z,30.4
2019-01-09T13:25:16.000Z,30.2
2019-01-09T13:27:17.000Z,30.1
2019-01-09T13:29:17.000Z,30
2019-01-09T13:30:17.000Z,30
2019-01-09T13:32:17.000Z,30.1
2019-01-09T13:34:17.000Z,30
2019-01-09T13:35:17.000Z,30
2019-01-09T13:37:17.000Z,29.6
2019-01-09T13:39:17.000Z,28.6
2019-01-09T13:41:17.000Z,27.8
2019-01-09T13:42:17.000Z,27.5
2019-01-09T13:43:17.000Z,27.3
2019-01-09T13:45:02.000Z,26.8
2019-01-09T13:46:17.000Z,26.5
2019-01-09T13:47:17.000Z,26.4
2019-01-09T13:48:17.000Z,26.2
2019-01-09T13:49:17.000Z,26
2019-01-09T13:51:17.000Z,25.7
2019-01-09T13:52:17.000Z,25.6
2019-01-09T13:54:17.000Z,25.4
2019-01-09T13:56:17.000Z,25.1
2019-01-09T13:58:17.000Z,24.9
2019-01-09T14:00:17.000Z,25.1
2019-01-09T14:01:17.000Z,25.3
2019-01-09T14:03:17.000Z,25.7
2019-01-09T14:04:17.000Z,25.8
2019-01-09T14:06:17.000Z,26.1
2019-01-09T14:07:17.000Z,26.2
2019-01-09T14:08:17.000Z,26.3
2019-01-09T14:09:17.000Z,26.5
2019-01-09T14:11:17.000Z,26.7
2019-01-09T14:13:17.000Z,26.8
2019-01-09T14:15:17.000Z,26.9
2019-01-09T14:16:17.000Z,26.9
2019-01-09T14:18:17.000Z,27
2019-01-09T14:19:17.000Z,27
2019-01-09T14:21:17.000Z,27.1
2019-01-09T14:22:17.000Z,27.2
2019-01-09T14:24:17.000Z,27.3
2019-01-09T14:25:17.000Z,27.3
2019-01-09T14:27:17.000Z,27.5
2019-01-09T14:29:17.000Z,27.5
2019-01-09T14:30:17.000Z,27.5
2019-01-09T14:32:17.000Z,27.6
2019-01-09T14:34:17.000Z,27.6
2019-01-09T14:36:17.000Z,27.7
2019-01-09T14:37:17.000Z,27.7
2019-01-09T14:39:17.000Z,27.8
2019-01-09T14:40:17.000Z,27.8
2019-01-09T14:42:17.000Z,27.9
2019-01-09T14:43:17.000Z,28
2019-01-09T14:45:17.000Z,28.1
2019-01-09T14:47:17.000Z,28.1
2019-01-09T14:49:17.000Z,28.2
2019-01-09T14:50:17.000Z,28.2
2019-01-09T14:52:17.000Z,28.3
2019-01-09T14:53:17.000Z,28.3
2019-01-09T14:55:02.000Z,28.4
2019-01-09T14:56:17.000Z,28.4
2019-01-09T14:57:17.000Z,28.4
2019-01-09T14:59:02.000Z,28.4
2019-01-09T15:00:17.000Z,28.4
2019-01-09T15:02:17.000Z,28.3
2019-01-09T15:04:02.000Z,28.3
2019-01-09T15:06:17.000Z,28
2019-01-09T15:07:17.000Z,28
2019-01-09T15:08:17.000Z,28
2019-01-09T15:10:17.000Z,28.1
2019-01-09T15:12:17.000Z,28.1
2019-01-09T15:14:17.000Z,28
2019-01-09T15:15:17.000Z,28
2019-01-09T15:16:17.000Z,28.1
2019-01-09T15:18:17.000Z,28.1
2019-01-09T15:19:17.000Z,28.2
2019-01-09T15:20:17.000Z,28.3
2019-01-09T15:22:17.000Z,28.3
2019-01-09T15:23:17.000Z,28.3
2019-01-09T15:25:02.000Z,28.3
2019-01-09T15:26:17.000Z,28.3
2019-01-09T15:28:02.000Z,28.2
2019-01-09T15:29:17.000Z,28.2
2019-01-09T15:31:17.000Z,28.1
2019-01-09T15:33:17.000Z,28.1
2019-01-09T15:34:17.000Z,28.1
2019-01-09T15:36:17.000Z,28.2
2019-01-09T15:37:17.000Z,28.2
2019-01-09T15:39:17.000Z,28.2
2019-01-09T15:41:17.000Z,28.1
2019-01-09T15:42:17.000Z,28.1
2019-01-09T15:43:17.000Z,28.2
2019-01-09T15:45:17.000Z,28.2
2019-01-09T15:46:17.000Z,28.3
2019-01-09T15:48:17.000Z,28.3
2019-01-09T15:49:17.000Z,28.2
2019-01-09T15:51:17.000Z,28.3
2019-01-09T15:52:17.000Z,28.3
2019-01-09T15:54:02.000Z,28.3
2019-01-09T15:55:17.000Z,28.1
2019-01-09T15:56:17.000Z,28.1
2019-01-09T15:57:17.000Z,28.1
2019-01-09T15:59:17.000Z,28.2
2019-01-09T16:01:17.000Z,28.2
2019-01-09T16:03:17.000Z,28.1
2019-01-09T16:04:17.000Z,28.1
2019-01-09T16:05:17.000Z,28.1
2019-01-09T16:06:17.000Z,28.2
2019-01-09T16:08:17.000Z,28.2
2019-01-09T16:10:17.000Z,28.2
2019-01-09T16:12:17.000Z,28.1
2019-01-09T16:14:17.000Z,28
2019-01-09T16:16:17.000Z,27.9
2019-01-09T16:18:17.000Z,27.9
2019-01-09T16:19:17.000Z,27.9
2019-01-09T16:21:17.000Z,27.9
2019-01-09T16:22:17.000Z,28
2019-01-09T16:24:17.000Z,28
2019-01-09T16:25:17.000Z,28
2019-01-09T16:27:17.000Z,28
2019-01-09T16:29:17.000Z,27.9
2019-01-09T16:31:17.000Z,27.8
2019-01-09T16:32:17.000Z,27.8
2019-01-09T16:33:17.000Z,27.9
2019-01-09T16:35:17.000Z,28
2019-01-09T16:37:17.000Z,28
2019-01-09T16:39:17.000Z,27.9
2019-01-09T16:41:17.000Z,27.8
2019-01-09T16:42:17.000Z,27.9
2019-01-09T16:43:17.000Z,27.9
2019-01-09T16:45:17.000Z,28
2019-01-09T16:47:17.000Z,28
2019-01-09T16:49:17.000Z,27.8
2019-01-09T16:51:17.000Z,27.7
2019-01-09T16:53:01.000Z,27.7
2019-01-09T16:54:02.000Z,27.6
2019-01-09T16:55:16.000Z,27.6
2019-01-09T16:56:17.000Z,27.5
2019-01-09T16:58:17.000Z,27.6
2019-01-09T17:00:17.000Z,27.7
2019-01-09T17:02:02.000Z,27.7
2019-01-09T17:04:16.000Z,27.4
2019-01-09T17:06:17.000Z,27.2
2019-01-09T17:08:17.000Z,27.1
2019-01-09T17:09:17.000Z,27.2
2019-01-09T17:11:02.000Z,27.3
2019-01-09T17:12:17.000Z,27.3
2019-01-09T17:13:17.000Z,27.3
2019-01-09T17:15:17.000Z,27.4
2019-01-09T17:17:17.000Z,27.4
2019-01-09T17:18:17.000Z,27.4
2019-01-09T17:20:02.000Z,27.5
2019-01-09T17:21:16.000Z,27.4
2019-01-09T17:22:17.000Z,27.4
2019-01-09T17:24:17.000Z,27.4
2019-01-09T17:26:17.000Z,27.4
2019-01-09T17:28:17.000Z,27.4
2019-01-09T17:30:16.000Z,27.4
2019-01-09T17:31:17.000Z,27.4
2019-01-09T17:32:17.000Z,27.5
2019-01-09T17:34:17.000Z,27.6
2019-01-09T17:36:01.000Z,27.7
2019-01-09T17:37:17.000Z,27.7
2019-01-09T17:38:17.000Z,27.7
2019-01-09T17:39:17.000Z,27.8
2019-01-09T17:41:17.000Z,27.8
2019-01-09T17:42:17.000Z,27.8
2019-01-09T17:44:17.000Z,27.7
2019-01-09T17:45:17.000Z,27.7
2019-01-09T17:47:02.000Z,27.7
2019-01-09T17:48:17.000Z,27.6
2019-01-09T17:50:17.000Z,27.5
2019-01-09T17:52:17.000Z,27.5
2019-01-09T17:54:02.000Z,27.5
2019-01-09T17:56:02.000Z,27.4
2019-01-09T17:57:17.000Z,27.2
2019-01-09T17:58:17.000Z,27.2
2019-01-09T18:00:17.000Z,27.2
2019-01-09T18:02:17.000Z,27.2
2019-01-09T18:03:17.000Z,27.3
2019-01-09T18:05:02.000Z,27.4
2019-01-09T18:06:17.000Z,27.3
2019-01-09T18:08:02.000Z,27.3
2019-01-09T18:09:17.000Z,27.1
2019-01-09T18:11:17.000Z,27.1
2019-01-09T18:12:17.000Z,27.1
2019-01-09T18:13:17.000Z,27.2
2019-01-09T18:15:17.000Z,27.2
2019-01-09T18:16:17.000Z,27.3
2019-01-09T18:18:17.000Z,27.3
2019-01-09T18:20:17.000Z,27.3
2019-01-09T18:22:17.000Z,27.3
2019-01-09T18:24:17.000Z,27.1
2019-01-09T18:25:17.000Z,27.1
2019-01-09T18:27:02.000Z,27.1
2019-01-09T18:28:17.000Z,27.1
2019-01-09T18:29:17.000Z,27.2
2019-01-09T18:30:17.000Z,27.3
2019-01-09T18:32:02.000Z,27.4
2019-01-09T18:33:17.000Z,27.3
2019-01-09T18:34:17.000Z,27.3
2019-01-09T18:36:17.000Z,27.2
2019-01-09T18:38:17.000Z,27.2
2019-01-09T18:39:17.000Z,27.3
2019-01-09T18:41:17.000Z,27.4
2019-01-09T18:42:17.000Z,27.4
2019-01-09T18:44:17.000Z,27.5
2019-01-09T18:46:02.000Z,27.5
2019-01-09T18:47:17.000Z,27.4
2019-01-09T18:49:17.000Z,27.4
2019-01-09T18:50:17.000Z,27.5
2019-01-09T18:52:02.000Z,27.4
2019-01-09T18:53:17.000Z,27.4
2019-01-09T18:55:17.000Z,27.2
2019-01-09T18:57:17.000Z,27.1
2019-01-09T18:59:17.000Z,27
2019-01-09T19:01:17.000Z,27
2019-01-09T19:02:17.000Z,27
2019-01-09T19:04:02.000Z,27.1
2019-01-09T19:05:17.000Z,27.1
2019-01-09T19:06:17.000Z,27.2
2019-01-09T19:08:17.000Z,27.3
2019-01-09T19:10:17.000Z,27.3
2019-01-09T19:12:17.000Z,27.3
2019-01-09T19:13:17.000Z,27.3
2019-01-09T19:15:17.000Z,27.3
2019-01-09T19:17:02.000Z,27.4
2019-01-09T19:19:17.000Z,27.1
2019-01-09T19:20:17.000Z,27
2019-01-09T19:21:17.000Z,27
2019-01-09T19:23:17.000Z,27
2019-01-09T19:24:17.000Z,27
2019-01-09T19:26:02.000Z,27.2
2019-01-09T19:27:02.000Z,27.2
2019-01-09T19:28:17.000Z,27.1
2019-01-09T19:30:17.000Z,27
2019-01-09T19:32:17.000Z,27
2019-01-09T19:34:17.000Z,27
2019-01-09T19:36:17.000Z,27.1
2019-01-09T19:38:17.000Z,27
2019-01-09T19:39:17.000Z,27.1
2019-01-09T19:41:17.000Z,27.2
2019-01-09T19:43:17.000Z,27.3
2019-01-09T19:45:02.000Z,27.3
2019-01-09T19:46:17.000Z,27.3
2019-01-09T19:48:17.000Z,27.4
2019-01-09T19:49:17.000Z,27.4
2019-01-09T19:51:17.000Z,27.5
2019-01-09T19:52:17.000Z,27.5
2019-01-09T19:54:17.000Z,27.4
2019-01-09T19:56:01.000Z,27.4
2019-01-09T19:57:17.000Z,27.4
2019-01-09T19:59:17.000Z,27.3
2019-01-09T20:00:17.000Z,27.4
2019-01-09T20:01:17.000Z,27.4
2019-01-09T20:02:17.000Z,27.5
2019-01-09T20:04:17.000Z,27.6
2019-01-09T20:06:17.000Z,27.6
2019-01-09T20:07:17.000Z,27.6
2019-01-09T20:09:17.000Z,27.5
2019-01-09T20:10:17.000Z,27.5
2019-01-09T20:12:02.000Z,27.5
2019-01-09T20:13:17.000Z,27.4
2019-01-09T20:15:17.000Z,27.3
2019-01-09T20:17:17.000Z,27.2
2019-01-09T20:19:17.000Z,27.1
2019-01-09T20:21:17.000Z,27
2019-01-09T20:23:17.000Z,26.9
2019-01-09T20:24:17.000Z,26.8
2019-01-09T20:26:17.000Z,26.8
2019-01-09T20:28:02.000Z,26.8
2019-01-09T20:29:17.000Z,26.8
2019-01-09T20:31:17.000Z,26.7
2019-01-09T20:32:17.000Z,26.7
2019-01-09T20:33:17.000Z,26.8
2019-01-09T20:35:02.000Z,27
2019-01-09T20:36:17.000Z,27
2019-01-09T20:38:17.000Z,27
2019-01-09T20:40:17.000Z,26.9
2019-01-09T20:42:17.000Z,26.8
2019-01-09T20:44:17.000Z,26.7
2019-01-09T20:46:02.000Z,26.6
2019-01-09T20:47:02.000Z,26.6
2019-01-09T20:48:17.000Z,26.5
2019-01-09T20:49:17.000Z,26.6
2019-01-09T20:51:17.000Z,26.6
2019-01-09T20:52:17.000Z,26.6
2019-01-09T20:53:17.000Z,26.7
2019-01-09T20:55:02.000Z,26.8
2019-01-09T20:56:16.000Z,26.9
2019-01-09T20:58:16.000Z,27
2019-01-09T21:00:01.000Z,27
2019-01-09T21:01:16.000Z,26.9
2019-01-09T21:03:16.000Z,26.9
2019-01-09T21:05:16.000Z,26.9
2019-01-09T21:07:16.000Z,26.8
2019-01-09T21:09:01.000Z,26.7
2019-01-09T21:10:16.000Z,26.6
2019-01-09T21:12:01.000Z,26.5
2019-01-09T21:14:01.000Z,26.4
2019-01-09T21:16:01.000Z,26.3
2019-01-09T21:17:16.000Z,26.2
2019-01-09T21:19:16.000Z,26.2
2019-01-09T21:20:16.000Z,26.2
2019-01-09T21:22:16.000Z,26.5
2019-01-09T21:24:16.000Z,26.6
2019-01-09T21:25:16.000Z,26.7
2019-01-09T21:26:16.000Z,26.8
2019-01-09T21:28:16.000Z,26.9
2019-01-09T21:30:16.000Z,27
2019-01-09T21:32:16.000Z,27
2019-01-09T21:33:16.000Z,27
2019-01-09T21:35:16.000Z,27
2019-01-09T21:37:16.000Z,27
2019-01-09T21:38:16.000Z,27
2019-01-09T21:40:16.000Z,27
2019-01-09T21:41:16.000Z,27
2019-01-09T21:42:16.000Z,27
2019-01-09T21:44:16.000Z,27
2019-01-09T21:45:16.000Z,27
2019-01-09T21:47:16.000Z,27.1